createdAt,value
2022-10-22T00:00:46.548Z,68.39
2022-10-22T00:03:14.450Z,67.74
2022-10-22T00:05:41.864Z,67.25
2022-10-22T00:08:09.267Z,67.34
2022-10-22T00:10:38.425Z,67.29
2022-10-22T00:13:05.982Z,66.80
2022-10-22T00:15:33.384Z,68.43
2022-10-22T00:18:00.759Z,67.61
2022-10-22T00:20:28.167Z,67.45
2022-10-22T00:22:55.593Z,68.28
2022-10-22T00:25:23.084Z,68.39
2022-10-22T00:27:50.600Z,68.56
2022-10-22T00:30:18.047Z,67.62
2022-10-22T00:32:45.521Z,68.03
2022-10-22T00:35:12.936Z,67.80
2022-10-22T00:37:40.327Z,68.19
2022-10-22T00:40:09.614Z,67.71
2022-10-22T00:42:40.023Z,67.62
2022-10-22T00:45:10.198Z,68.44
2022-10-22T00:47:41.732Z,67.93
2022-10-22T00:50:17.888Z,68.76
2022-10-22T00:52:45.343Z,69.12
2022-10-22T00:55:12.740Z,68.72
2022-10-22T00:57:40.087Z,69.27
2022-10-22T01:00:09.342Z,68.82
2022-10-22T01:02:39.728Z,69.31
2022-10-22T01:05:07.656Z,69.92
2022-10-22T01:07:47.252Z,69.57
2022-10-22T01:10:17.688Z,69.36
2022-10-22T01:13:05.925Z,69.88
2022-10-22T01:15:59.328Z,69.64
2022-10-22T01:18:34.003Z,69.60
2022-10-22T01:21:45.955Z,70.13
2022-10-22T01:24:42.486Z,69.82
2022-10-22T01:27:38.045Z,70.18
2022-10-22T01:30:10.056Z,69.62
2022-10-22T01:32:50.513Z,69.88
2022-10-22T01:35:24.538Z,70.16
2022-10-22T01:37:57.499Z,70.28
2022-10-22T01:40:25.123Z,69.93
2022-10-22T01:42:59.846Z,70.31
2022-10-22T01:45:28.807Z,70.59
2022-10-22T01:47:59.260Z,70.67
2022-10-22T01:50:48.230Z,70.71
2022-10-22T01:56:22.548Z,70.63
2022-10-22T01:59:13.223Z,70.80
2022-10-22T02:02:18.721Z,70.88
2022-10-22T02:04:50.634Z,71.15
2022-10-22T02:07:19.219Z,70.75
2022-10-22T02:09:46.671Z,70.53
2022-10-22T02:12:14.102Z,70.73
2022-10-22T02:14:44.362Z,71.08
2022-10-22T02:17:16.148Z,70.87
2022-10-22T02:20:06.333Z,70.78
2022-10-22T02:22:33.682Z,70.63
2022-10-22T02:25:01.211Z,70.92
2022-10-22T02:27:45.603Z,70.67
2022-10-22T02:32:54.925Z,71.04
2022-10-22T02:35:23.286Z,71.32
2022-10-22T02:37:50.716Z,71.01
2022-10-22T02:40:18.143Z,71.12
2022-10-22T02:42:46.603Z,70.63
2022-10-22T02:45:14.200Z,70.74
2022-10-22T02:47:41.634Z,70.37
2022-10-22T02:50:10.314Z,70.51
2022-10-22T02:52:38.522Z,70.66
2022-10-22T02:55:06.660Z,71.00
2022-10-22T02:57:34.132Z,70.92
2022-10-22T03:00:01.545Z,70.70
2022-10-22T03:02:28.958Z,70.75
2022-10-22T03:04:56.336Z,70.82
2022-10-22T03:07:23.761Z,70.50
2022-10-22T03:09:51.255Z,71.31
2022-10-22T03:12:18.707Z,71.04
2022-10-22T03:14:46.119Z,70.83
2022-10-22T03:17:14.075Z,70.69
2022-10-22T03:19:42.205Z,70.70
2022-10-22T03:22:34.802Z,71.23
2022-10-22T03:25:05.174Z,70.56
2022-10-22T03:27:32.563Z,70.70
2022-10-22T03:29:59.942Z,70.63
2022-10-22T03:32:27.291Z,70.73
2022-10-22T03:34:54.632Z,70.37
2022-10-22T03:37:22.509Z,70.59
2022-10-22T03:39:49.926Z,70.46
2022-10-22T03:42:17.403Z,70.32
2022-10-22T03:44:44.812Z,70.41
2022-10-22T03:47:12.214Z,70.61
2022-10-22T03:49:39.596Z,70.39
2022-10-22T03:52:08.204Z,70.48
2022-10-22T03:54:35.969Z,70.60
2022-10-22T03:57:04.478Z,70.49
2022-10-22T03:59:39.426Z,69.98
2022-10-22T04:02:06.910Z,70.41
2022-10-22T04:04:34.331Z,70.43
2022-10-22T04:07:01.795Z,70.10
2022-10-22T04:09:32.483Z,70.33
2022-10-22T04:12:00.498Z,70.27
2022-10-22T04:14:27.920Z,70.10
2022-10-22T04:16:55.330Z,70.40
2022-10-22T04:19:22.694Z,70.26
2022-10-22T04:21:50.110Z,70.12
2022-10-22T04:24:17.470Z,70.04
2022-10-22T04:26:44.856Z,69.93
2022-10-22T04:29:15.921Z,70.13
2022-10-22T04:31:43.834Z,69.59
2022-10-22T04:34:11.218Z,70.14
2022-10-22T04:36:38.695Z,70.38
2022-10-22T04:39:06.109Z,70.28
2022-10-22T04:41:35.621Z,70.44
2022-10-22T04:44:03.166Z,70.41
2022-10-22T04:46:31.776Z,70.33
2022-10-22T04:48:59.139Z,70.35
2022-10-22T04:51:26.787Z,70.42
2022-10-22T04:53:54.410Z,70.27
2022-10-22T04:56:24.844Z,70.12
2022-10-22T04:58:57.037Z,70.56
2022-10-22T05:01:29.020Z,70.41
2022-10-22T05:03:57.280Z,69.90
2022-10-22T05:06:24.861Z,70.16
2022-10-22T05:08:53.828Z,70.37
2022-10-22T05:11:22.833Z,70.17
2022-10-22T05:13:50.558Z,70.31
2022-10-22T05:16:17.945Z,70.24
2022-10-22T05:18:45.941Z,70.35
2022-10-22T05:21:15.022Z,70.34
2022-10-22T05:23:42.984Z,70.21
2022-10-22T05:26:11.346Z,70.26
2022-10-22T05:28:38.861Z,70.15
2022-10-22T05:31:06.964Z,70.38
2022-10-22T05:33:34.481Z,70.07
2022-10-22T05:36:02.248Z,70.57
2022-10-22T05:38:29.705Z,70.25
2022-10-22T05:41:01.688Z,70.41
2022-10-22T05:43:29.269Z,69.85
2022-10-22T05:45:56.730Z,70.31
2022-10-22T05:48:24.182Z,70.93
2022-10-22T05:50:51.658Z,70.30
2022-10-22T05:53:21.904Z,71.17
2022-10-22T05:55:49.392Z,70.51
2022-10-22T05:58:16.740Z,70.33
2022-10-22T06:00:44.138Z,70.19
2022-10-22T06:03:11.540Z,70.35
2022-10-22T06:05:39.007Z,70.89
2022-10-22T06:08:06.389Z,70.47
2022-10-22T06:10:33.735Z,70.67
2022-10-22T06:13:03.216Z,70.91
2022-10-22T06:15:30.616Z,70.59
2022-10-22T06:17:58.051Z,70.75
2022-10-22T06:20:25.494Z,71.04
2022-10-22T06:22:52.866Z,70.88
2022-10-22T06:25:20.276Z,70.49
2022-10-22T06:27:52.823Z,70.47
2022-10-22T06:30:22.991Z,70.54
2022-10-22T06:32:50.345Z,70.21
2022-10-22T06:35:17.814Z,70.58
2022-10-22T06:37:47.386Z,71.01
2022-10-22T06:40:16.386Z,71.04
2022-10-22T06:42:43.911Z,71.18
2022-10-22T06:45:11.403Z,71.09
2022-10-22T06:47:39.122Z,71.27
2022-10-22T06:50:07.218Z,70.77
2022-10-22T06:52:34.631Z,70.79
2022-10-22T06:55:02.063Z,70.96
2022-10-22T06:57:32.958Z,70.96
2022-10-22T07:00:00.402Z,70.78
2022-10-22T07:02:27.829Z,71.31
2022-10-22T07:04:55.283Z,70.80
2022-10-22T07:07:22.875Z,71.60
2022-10-22T07:09:51.463Z,71.67
2022-10-22T07:12:18.960Z,71.04
2022-10-22T07:14:46.300Z,71.35
2022-10-22T07:17:13.629Z,71.41
2022-10-22T07:19:41.012Z,71.86
2022-10-22T07:22:08.399Z,71.41
2022-10-22T07:24:36.239Z,71.59
2022-10-22T07:27:09.406Z,71.39
2022-10-22T07:29:39.099Z,71.26
2022-10-22T07:32:06.604Z,71.37
2022-10-22T07:34:34.229Z,71.23
2022-10-22T07:37:01.711Z,71.50
2022-10-22T07:39:29.142Z,71.46
2022-10-22T07:41:56.500Z,71.72
2022-10-22T07:44:23.837Z,71.46
2022-10-22T07:46:51.238Z,71.23
2022-10-22T07:49:18.622Z,71.26
2022-10-22T07:51:46.088Z,71.24
2022-10-22T07:54:13.536Z,71.25
2022-10-22T07:56:40.915Z,71.51
2022-10-22T07:59:08.311Z,71.60
2022-10-22T08:01:35.702Z,71.66
2022-10-22T08:04:03.067Z,71.37
2022-10-22T08:06:30.434Z,71.51
2022-10-22T08:08:57.910Z,71.55
2022-10-22T08:11:25.330Z,71.74
2022-10-22T08:13:53.271Z,71.83
2022-10-22T08:16:20.651Z,71.80
2022-10-22T08:18:48.011Z,71.92
2022-10-22T08:21:15.597Z,71.62
2022-10-22T08:23:43.403Z,71.76
2022-10-22T08:26:11.112Z,71.86
2022-10-22T08:28:38.532Z,71.54
2022-10-22T08:31:07.464Z,72.05
2022-10-22T08:33:34.902Z,71.81
2022-10-22T08:36:02.379Z,71.92
2022-10-22T08:38:31.496Z,71.68
2022-10-22T08:41:06.894Z,71.33
2022-10-22T08:43:55.703Z,71.36
2022-10-22T08:46:52.549Z,71.33
2022-10-22T08:49:24.645Z,71.13
2022-10-22T08:51:52.226Z,71.75
2022-10-22T08:54:25.430Z,71.60
2022-10-22T08:57:23.902Z,71.62
2022-10-22T09:00:29.574Z,71.65
2022-10-22T09:03:02.670Z,71.48
2022-10-22T09:05:56.158Z,71.82
2022-10-22T09:08:23.567Z,71.85
2022-10-22T09:10:53.517Z,71.84
2022-10-22T09:13:21.429Z,71.93
2022-10-22T09:16:01.775Z,71.97
2022-10-22T09:18:36.887Z,71.88
2022-10-22T09:21:13.153Z,71.95
2022-10-22T09:23:59.211Z,71.82
2022-10-22T09:26:27.699Z,71.81
2022-10-22T09:28:55.176Z,72.06
2022-10-22T09:31:22.826Z,71.81
2022-10-22T09:33:50.707Z,72.10
2022-10-22T09:36:20.980Z,72.18
2022-10-22T09:38:50.431Z,71.74
2022-10-22T09:41:18.648Z,71.86
2022-10-22T09:43:49.294Z,72.27
2022-10-22T09:46:19.333Z,72.13
2022-10-22T09:49:04.770Z,71.76
2022-10-22T09:51:53.952Z,71.72
2022-10-22T09:54:33.171Z,71.85
2022-10-22T09:57:04.678Z,72.00
2022-10-22T09:59:34.068Z,71.92
2022-10-22T10:02:20.166Z,71.62
2022-10-22T10:04:55.923Z,71.80
2022-10-22T10:07:25.100Z,71.90
2022-10-22T10:09:53.675Z,71.70
2022-10-22T10:12:42.462Z,71.67
2022-10-22T10:15:29.037Z,71.88
2022-10-22T10:18:01.929Z,71.73
2022-10-22T10:20:50.010Z,71.93
2022-10-22T10:23:23.118Z,71.81
2022-10-22T10:26:00.531Z,72.01
2022-10-22T10:28:34.430Z,71.99
2022-10-22T10:31:22.887Z,71.88
2022-10-22T10:34:13.049Z,71.79
2022-10-22T10:36:46.346Z,71.82
2022-10-22T10:39:28.064Z,71.92
2022-10-22T10:42:22.887Z,71.89
2022-10-22T10:45:11.336Z,72.00
2022-10-22T10:47:50.572Z,72.00
2022-10-22T10:50:29.771Z,72.08
2022-10-22T10:53:19.587Z,71.94
2022-10-22T10:56:06.937Z,72.30
2022-10-22T10:58:49.490Z,72.46
2022-10-22T11:01:25.732Z,72.04
2022-10-22T11:03:55.787Z,72.00
2022-10-22T11:06:25.542Z,72.17
2022-10-22T11:09:01.196Z,72.42
2022-10-22T11:11:34.728Z,72.03
2022-10-22T11:14:24.215Z,72.61
2022-10-22T11:16:54.967Z,71.76
2022-10-22T11:19:50.388Z,71.83
2022-10-22T11:22:24.549Z,71.34
2022-10-22T11:24:56.395Z,71.63
2022-10-22T11:27:45.839Z,71.82
2022-10-22T11:30:17.783Z,71.98
2022-10-22T11:32:47.692Z,71.91
2022-10-22T11:35:17.138Z,72.03
2022-10-22T11:37:44.627Z,71.85
2022-10-22T11:40:21.830Z,72.03
2022-10-22T11:42:57.407Z,71.98
2022-10-22T11:45:24.722Z,72.12
2022-10-22T11:48:10.206Z,72.19
2022-10-22T11:50:44.376Z,72.01
2022-10-22T11:53:14.488Z,72.22
2022-10-22T11:55:51.778Z,72.10
2022-10-22T11:58:35.685Z,72.21
2022-10-22T12:01:02.991Z,72.18
2022-10-22T12:03:33.072Z,72.27
2022-10-22T12:06:12.310Z,72.24
2022-10-22T12:08:49.003Z,72.09
2022-10-22T12:11:19.366Z,72.39
2022-10-22T12:14:00.289Z,72.41
2022-10-22T12:16:54.731Z,72.33
2022-10-22T12:19:23.743Z,72.45
2022-10-22T12:22:13.519Z,72.49
2022-10-22T12:24:42.936Z,72.13
2022-10-22T12:27:26.018Z,72.21
2022-10-22T12:29:57.803Z,72.62
2022-10-22T12:32:38.694Z,72.60
2022-10-22T12:35:09.046Z,72.53
2022-10-22T12:37:37.190Z,72.62
2022-10-22T12:40:27.374Z,72.48
2022-10-22T12:43:01.866Z,72.43
2022-10-22T12:45:30.792Z,72.55
2022-10-22T12:47:59.690Z,72.49
2022-10-22T12:50:58.284Z,72.44
2022-10-22T12:53:28.395Z,72.50
2022-10-22T12:55:56.721Z,72.68
2022-10-22T12:58:29.093Z,72.40
2022-10-22T13:01:02.110Z,72.51
2022-10-22T13:03:35.496Z,72.51
2022-10-22T13:06:18.359Z,72.45
2022-10-22T13:08:55.579Z,72.83
2022-10-22T13:11:23.750Z,72.51
2022-10-22T13:13:51.232Z,72.48
2022-10-22T13:16:25.841Z,72.81
2022-10-22T13:18:53.561Z,72.40
2022-10-22T13:21:37.212Z,72.82
2022-10-22T13:24:22.948Z,72.70
2022-10-22T13:26:53.859Z,72.67
2022-10-22T13:29:21.997Z,72.71
2022-10-22T13:31:51.316Z,72.72
2022-10-22T13:34:23.753Z,72.39
2022-10-22T13:36:51.428Z,72.57
2022-10-22T13:39:23.881Z,72.23
2022-10-22T13:41:51.467Z,72.28
2022-10-22T13:44:19.747Z,72.50
2022-10-22T13:46:47.629Z,72.45
2022-10-22T13:49:19.887Z,72.55
2022-10-22T13:51:47.327Z,72.25
2022-10-22T13:56:46.547Z,72.22
2022-10-22T13:59:15.380Z,72.45
2022-10-22T14:01:44.711Z,72.12
2022-10-22T14:04:12.838Z,71.97
2022-10-22T14:06:40.230Z,72.17
2022-10-22T14:09:11.990Z,72.19
2022-10-22T14:11:39.516Z,71.92
2022-10-22T14:14:09.185Z,72.25
2022-10-22T14:16:36.710Z,72.11
2022-10-22T14:19:04.151Z,72.23
2022-10-22T14:21:34.251Z,72.43
2022-10-22T14:24:01.968Z,72.38
2022-10-22T14:26:33.082Z,72.31
2022-10-22T14:29:16.232Z,72.46
2022-10-22T14:31:44.499Z,72.27
2022-10-22T14:34:13.358Z,72.15
2022-10-22T14:36:43.566Z,72.36
2022-10-22T14:39:11.779Z,72.36
2022-10-22T14:41:39.250Z,72.42
2022-10-22T14:44:06.661Z,72.49
2022-10-22T14:46:34.193Z,72.60
2022-10-22T14:49:02.841Z,72.53
2022-10-22T14:51:30.235Z,72.58
2022-10-22T14:53:57.673Z,72.59
2022-10-22T14:56:25.124Z,72.40
2022-10-22T14:58:53.709Z,72.86
2022-10-22T15:01:21.108Z,72.73
2022-10-22T15:03:48.527Z,72.56
2022-10-22T15:06:16.008Z,72.88
2022-10-22T15:08:44.894Z,72.54
2022-10-22T15:11:13.620Z,72.52
2022-10-22T15:13:42.077Z,72.28
2022-10-22T15:16:10.447Z,72.67
2022-10-22T15:18:37.924Z,72.63
2022-10-22T15:21:13.385Z,72.92
2022-10-22T15:23:40.806Z,72.82
2022-10-22T15:26:08.904Z,72.84
2022-10-22T15:28:37.071Z,72.89
2022-10-22T15:31:04.482Z,72.90
2022-10-22T15:33:31.864Z,72.55
2022-10-22T15:35:59.399Z,72.76
2022-10-22T15:41:05.444Z,72.99
2022-10-22T15:43:34.236Z,73.11
2022-10-22T15:46:19.953Z,72.98
2022-10-22T15:48:47.378Z,72.91
2022-10-22T15:51:16.352Z,72.67
2022-10-22T15:53:43.880Z,72.64
2022-10-22T15:56:14.068Z,72.91
2022-10-22T15:58:41.485Z,72.81
2022-10-22T16:01:10.640Z,72.86
2022-10-22T16:03:41.023Z,72.90
2022-10-22T16:06:09.324Z,73.15
2022-10-22T16:08:37.093Z,73.12
2022-10-22T16:11:04.779Z,72.82
2022-10-22T16:13:32.180Z,72.89
2022-10-22T16:16:03.780Z,73.10
2022-10-22T16:18:31.136Z,73.02
2022-10-22T16:20:58.938Z,73.27
2022-10-22T16:23:44.747Z,73.13
2022-10-22T16:26:13.949Z,73.21
2022-10-22T16:28:41.807Z,73.29
2022-10-22T16:31:10.556Z,72.89
2022-10-22T16:33:47.791Z,72.91
2022-10-22T16:36:18.064Z,73.43
2022-10-22T16:38:46.077Z,73.03
2022-10-22T16:41:16.816Z,73.58
2022-10-22T16:43:46.963Z,73.34
2022-10-22T16:46:15.353Z,73.19
2022-10-22T16:48:50.255Z,73.49
2022-10-22T16:51:19.461Z,72.82
2022-10-22T16:53:46.961Z,72.77
2022-10-22T16:56:15.216Z,73.09
2022-10-22T16:58:49.389Z,73.66
2022-10-22T17:01:18.254Z,72.74
2022-10-22T17:03:45.877Z,73.11
2022-10-22T17:06:13.413Z,73.32
2022-10-22T17:08:41.191Z,72.98
2022-10-22T17:11:12.843Z,73.00
2022-10-22T17:13:40.853Z,73.26
2022-10-22T17:16:10.168Z,73.07
2022-10-22T17:18:38.515Z,73.11
2022-10-22T17:21:06.721Z,73.18
2022-10-22T17:23:34.092Z,73.05
2022-10-22T17:26:08.638Z,73.19
2022-10-22T17:28:36.511Z,73.30
2022-10-22T17:31:03.792Z,73.03
2022-10-22T17:33:31.559Z,73.43
2022-10-22T17:35:59.015Z,73.58
2022-10-22T17:38:26.529Z,73.42
2022-10-22T17:40:53.980Z,73.02
2022-10-22T17:43:21.433Z,73.32
2022-10-22T17:45:48.827Z,73.25
2022-10-22T17:48:16.649Z,73.39
2022-10-22T17:50:48.255Z,73.53
2022-10-22T17:53:18.194Z,73.39
2022-10-22T17:55:45.500Z,73.12
2022-10-22T17:58:12.962Z,73.01
2022-10-22T18:00:40.349Z,73.19
2022-10-22T18:03:08.790Z,72.89
2022-10-22T18:05:36.196Z,73.00
2022-10-22T18:08:07.599Z,73.37
2022-10-22T18:10:39.438Z,73.29
2022-10-22T18:13:09.489Z,73.14
2022-10-22T18:15:39.484Z,73.13
2022-10-22T18:18:06.953Z,72.92
2022-10-22T18:20:34.364Z,73.28
2022-10-22T18:23:03.632Z,72.98
2022-10-22T18:25:31.819Z,72.94
2022-10-22T18:27:59.334Z,73.18
2022-10-22T18:30:26.686Z,73.09
2022-10-22T18:32:54.157Z,72.97
2022-10-22T18:35:21.556Z,73.20
2022-10-22T18:37:49.017Z,72.98
2022-10-22T18:40:16.516Z,72.91
2022-10-22T18:42:44.827Z,72.73
2022-10-22T18:45:12.451Z,72.62
2022-10-22T18:47:41.284Z,72.49
2022-10-22T18:50:09.389Z,72.33
2022-10-22T18:52:36.738Z,72.86
2022-10-22T18:55:04.601Z,72.52
2022-10-22T18:57:32.311Z,72.57
2022-10-22T19:00:02.192Z,72.04
2022-10-22T19:02:30.016Z,72.24
2022-10-22T19:04:57.386Z,72.11
2022-10-22T19:07:24.789Z,72.51
2022-10-22T19:09:52.184Z,72.45
2022-10-22T19:12:21.636Z,71.90
2022-10-22T19:14:49.698Z,72.18
2022-10-22T19:17:17.125Z,72.13
2022-10-22T19:19:45.074Z,71.63
2022-10-22T19:22:12.983Z,71.66
2022-10-22T19:24:40.439Z,71.71
2022-10-22T19:27:08.602Z,72.70
2022-10-22T19:29:35.963Z,72.34
2022-10-22T19:32:03.393Z,72.31
2022-10-22T19:34:30.826Z,71.89
2022-10-22T19:36:58.356Z,71.98
2022-10-22T19:39:25.712Z,72.42
2022-10-22T19:41:53.102Z,72.26
2022-10-22T19:44:20.480Z,72.09
2022-10-22T19:46:47.918Z,71.82
2022-10-22T19:49:18.948Z,72.03
2022-10-22T19:51:49.415Z,71.65
2022-10-22T19:54:18.819Z,71.98
2022-10-22T19:56:46.529Z,71.97
2022-10-22T19:59:15.110Z,72.24
2022-10-22T20:01:42.489Z,72.27
2022-10-22T20:04:11.884Z,72.89
2022-10-22T20:06:39.272Z,72.27
2022-10-22T20:09:06.707Z,72.49
2022-10-22T20:11:34.122Z,72.67
2022-10-22T20:14:01.593Z,72.39
2022-10-22T20:16:30.122Z,72.48
2022-10-22T20:19:01.624Z,72.57
2022-10-22T20:21:29.332Z,72.73
2022-10-22T20:23:57.455Z,72.28
2022-10-22T20:26:27.902Z,72.37
2022-10-22T20:28:57.196Z,72.54
2022-10-22T20:31:27.077Z,72.20
2022-10-22T20:33:56.796Z,72.42
2022-10-22T20:36:24.673Z,72.11
2022-10-22T20:41:22.822Z,72.14
2022-10-22T20:43:53.299Z,72.00
2022-10-22T20:46:25.608Z,72.10
2022-10-22T20:48:54.350Z,72.52
2022-10-22T20:51:21.716Z,72.31
2022-10-22T20:53:49.170Z,72.25
2022-10-22T20:56:16.843Z,71.90
2022-10-22T20:58:48.265Z,72.17
2022-10-22T21:01:22.211Z,72.13
2022-10-22T21:03:50.904Z,72.31
2022-10-22T21:06:22.954Z,71.99
2022-10-22T21:08:50.902Z,72.20
2022-10-22T21:11:18.709Z,71.93
2022-10-22T21:14:05.367Z,72.25
2022-10-22T21:16:32.841Z,72.15
2022-10-22T21:19:00.272Z,71.88
2022-10-22T21:21:27.721Z,71.88
2022-10-22T21:23:55.134Z,72.08
2022-10-22T21:26:22.566Z,71.71
2022-10-22T21:28:50.058Z,71.87
2022-10-22T21:31:26.060Z,72.04
2022-10-22T21:33:53.736Z,72.13
2022-10-22T21:36:23.041Z,72.11
2022-10-22T21:38:51.860Z,72.19
2022-10-22T21:41:20.816Z,72.03
2022-10-22T21:43:48.344Z,72.43
2022-10-22T21:46:25.911Z,72.30
2022-10-22T21:48:57.451Z,72.29
2022-10-22T21:51:25.451Z,72.15
2022-10-22T21:53:52.954Z,72.15
2022-10-22T21:56:27.980Z,71.96
2022-10-22T21:58:57.961Z,72.26
2022-10-22T22:01:25.446Z,72.30
2022-10-22T22:03:52.980Z,71.98
2022-10-22T22:06:22.282Z,72.16
2022-10-22T22:08:50.825Z,72.14
2022-10-22T22:11:20.371Z,72.16
2022-10-22T22:13:48.765Z,72.17
2022-10-22T22:16:21.270Z,72.12
2022-10-22T22:18:51.301Z,71.95
2022-10-22T22:21:19.800Z,72.08
2022-10-22T22:23:48.297Z,72.11
2022-10-22T22:26:16.923Z,72.19
2022-10-22T22:28:44.429Z,72.27
2022-10-22T22:31:33.591Z,72.29
2022-10-22T22:34:08.432Z,72.00
2022-10-22T22:36:37.327Z,72.18
2022-10-22T22:39:05.630Z,72.19
2022-10-22T22:41:33.265Z,72.23
2022-10-22T22:44:00.722Z,72.50
2022-10-22T22:46:28.272Z,72.68
2022-10-22T22:48:55.683Z,72.74
2022-10-22T22:51:23.097Z,72.60
2022-10-22T22:53:50.784Z,72.83
2022-10-22T22:56:20.508Z,72.60
2022-10-22T22:58:47.996Z,72.54
2022-10-22T23:01:19.537Z,72.41
2022-10-22T23:03:48.719Z,72.30
2022-10-22T23:06:16.196Z,72.31
2022-10-22T23:08:43.759Z,72.03
2022-10-22T23:11:12.479Z,71.86
2022-10-22T23:13:42.586Z,72.07
2022-10-22T23:16:14.899Z,72.23
2022-10-22T23:19:01.102Z,72.02
2022-10-22T23:21:30.539Z,72.13
2022-10-22T23:23:59.768Z,72.25
2022-10-22T23:26:29.149Z,72.01
2022-10-22T23:29:00.828Z,72.11
2022-10-22T23:31:28.177Z,72.19
2022-10-22T23:33:55.555Z,72.11
2022-10-22T23:36:22.970Z,71.94
2022-10-22T23:38:50.361Z,72.03
2022-10-22T23:41:17.795Z,71.89
2022-10-22T23:43:45.207Z,72.03
2022-10-22T23:46:13.020Z,72.16
2022-10-22T23:48:40.449Z,72.17
2022-10-22T23:51:09.282Z,72.24
2022-10-22T23:53:36.743Z,72.13
2022-10-22T23:56:05.598Z,72.22
2022-10-22T23:58:33.536Z,72.39
